Time;durP1;ratioP1;P1;durP2;ratioP2;P2;SDS_P1;SDS_P2;PMS_P1;PMS_P2;Temp;Humidity;BMP_temperature;BMP_pressure;BME280_temperature;BME280_humidity;BME280_pressure;Samples;Min_cycle;Max_cycle;Signal;HPM_P1;HPM_P2
2021/06/07 00:01:52;;;;;;;26.35;19.27;;;;;;;18.42;65.89;100588.69;5034675;28;20053;-87
2021/06/07 00:04:19;;;;;;;34.88;19.05;;;;;;;18.44;66.00;100586.78;5034740;28;20509;-87
2021/06/07 00:06:59;;;;;;;29.15;19.60;;;;;;;18.38;66.04;100586.41;5034339;28;20045;-87
2021/06/07 00:09:42;;;;;;;29.77;18.10;;;;;;;18.36;66.04;100589.19;5034477;28;20489;-86
2021/06/07 00:12:15;;;;;;;23.75;17.02;;;;;;;18.38;65.93;100594.41;5034550;28;20135;-87
2021/06/07 00:14:42;;;;;;;29.70;18.00;;;;;;;18.40;65.90;100590.66;5035934;28;20510;-87
2021/06/07 00:17:09;;;;;;;29.85;18.48;;;;;;;18.38;66.07;100587.25;5053432;28;20053;-87
2021/06/07 00:20:01;;;;;;;28.90;18.88;;;;;;;18.33;66.07;100586.75;5054256;28;20059;-87
2021/06/07 00:22:28;;;;;;;27.65;17.00;;;;;;;18.36;65.54;100583.84;5054546;28;20076;-87
2021/06/07 00:25:06;;;;;;;31.10;21.05;;;;;;;18.31;65.96;100581.53;5054338;28;20063;-86
2021/06/07 00:27:33;;;;;;;32.80;23.23;;;;;;;18.32;65.38;100583.22;5054711;28;20055;-87
2021/06/07 00:30:18;;;;;;;37.13;25.95;;;;;;;18.26;65.93;100583.72;5058151;28;20456;-87
2021/06/07 00:32:45;;;;;;;35.33;25.92;;;;;;;18.29;65.55;100578.16;5056085;28;20052;-87
2021/06/07 00:35:18;;;;;;;32.85;24.30;;;;;;;18.26;65.76;100580.19;5057529;28;20059;-87
2021/06/07 00:37:54;;;;;;;34.70;25.80;;;;;;;18.24;65.86;100580.28;5057682;28;20053;-87
2021/06/07 00:40:24;;;;;;;32.22;24.60;;;;;;;18.25;65.72;100576.69;5057513;28;20044;-87
2021/06/07 00:42:53;;;;;;;29.17;23.63;;;;;;;18.24;65.72;100582.97;5057785;28;20056;-87
2021/06/07 00:45:29;;;;;;;34.72;24.52;;;;;;;18.22;66.00;100571.59;5057529;28;20499;-86
2021/06/07 00:47:57;;;;;;;32.67;23.73;;;;;;;18.24;66.07;100577.63;5056352;28;20059;-87
2021/06/07 00:50:57;;;;;;;33.95;22.35;;;;;;;18.19;66.08;100583.31;5037545;28;20041;-87
2021/06/07 00:53:24;;;;;;;30.73;21.73;;;;;;;18.26;65.81;100585.50;5037417;28;20060;-87
2021/06/07 00:56:06;;;;;;;35.38;20.83;;;;;;;18.22;66.13;100582.25;5055226;28;20063;-87
2021/06/07 00:58:42;;;;;;;29.88;21.10;;;;;;;18.23;66.18;100583.94;5037598;28;20503;-87
2021/06/07 01:01:11;;;;;;;33.50;21.45;;;;;;;18.23;65.73;100581.25;5037193;28;20041;-87
2021/06/07 01:03:39;;;;;;;31.20;20.02;;;;;;;18.21;65.96;100580.56;5037603;28;20119;-87
2021/06/07 01:06:22;;;;;;;34.17;20.55;;;;;;;18.17;66.01;100582.56;5037657;28;20136;-87
2021/06/07 01:08:52;;;;;;;26.10;17.98;;;;;;;18.20;65.90;100576.16;5038408;28;20055;-87
2021/06/07 01:11:21;;;;;;;39.80;21.40;;;;;;;18.21;65.96;100580.56;5055316;28;20468;-87
2021/06/07 01:13:48;;;;;;;32.65;20.10;;;;;;;18.19;65.93;100577.13;5037214;28;20053;-82
2021/06/07 01:16:16;;;;;;;37.00;21.52;;;;;;;18.18;66.11;100578.09;5038238;23;20406;-88
2021/06/07 01:18:43;;;;;;;38.50;22.88;;;;;;;18.17;65.85;100577.25;5016367;28;20056;-87
2021/06/07 01:21:15;;;;;;;31.92;20.95;;;;;;;18.16;66.27;100580.06;5015447;28;20049;-87
2021/06/07 01:23:45;;;;;;;29.20;20.73;;;;;;;18.15;65.89;100581.84;5014835;28;20396;-88
2021/06/07 01:26:14;;;;;;;37.53;22.48;;;;;;;18.16;65.80;100577.41;4996700;28;20065;-87
2021/06/07 01:28:42;;;;;;;28.42;21.25;;;;;;;18.14;65.82;100572.19;5024302;28;20379;-87
2021/06/07 01:31:11;;;;;;;34.90;21.95;;;;;;;18.13;65.97;100565.13;5034011;28;20088;-88
2021/06/07 01:33:41;;;;;;;30.58;21.38;;;;;;;18.11;66.09;100567.06;5016327;28;20096;-86
2021/06/07 01:36:08;;;;;;;32.05;21.58;;;;;;;18.13;65.86;100572.28;5016309;28;20071;-88
2021/06/07 01:38:35;;;;;;;32.28;21.17;;;;;;;18.10;66.08;100574.19;5002424;28;20104;-87
2021/06/07 01:41:08;;;;;;;29.45;20.95;;;;;;;18.07;66.26;100579.75;4995446;28;20057;-88
2021/06/07 01:43:35;;;;;;;26.77;20.63;;;;;;;18.10;66.17;100573.38;5014241;28;20060;-87
2021/06/07 01:46:04;;;;;;;28.73;20.50;;;;;;;18.08;66.05;100572.63;4996607;28;20061;-87
2021/06/07 01:48:31;;;;;;;29.35;20.60;;;;;;;18.08;65.86;100572.63;4996417;28;20058;-87
2021/06/07 01:51:00;;;;;;;35.45;22.23;;;;;;;18.07;66.03;100577.09;4996201;28;20496;-87
2021/06/07 01:53:28;;;;;;;30.38;21.45;;;;;;;18.06;65.80;100575.38;4996284;28;20050;-87
2021/06/07 01:55:58;;;;;;;24.77;19.75;;;;;;;18.05;65.94;100564.84;4995758;28;20503;-86
2021/06/07 01:58:25;;;;;;;27.17;19.98;;;;;;;18.04;65.54;100564.00;4996237;28;20062;-87
2021/06/07 02:00:52;;;;;;;31.88;21.45;;;;;;;18.05;66.05;100559.53;4995850;28;20116;-86
2021/06/07 02:03:20;;;;;;;32.20;21.80;;;;;;;18.03;65.87;100558.78;4995978;28;20065;-88
2021/06/07 02:05:51;;;;;;;30.05;20.75;;;;;;;18.03;66.00;100561.44;5013227;28;20462;-87
2021/06/07 02:08:19;;;;;;;27.90;20.38;;;;;;;18.02;65.60;100565.91;5013447;28;20061;-87
2021/06/07 02:10:50;;;;;;;28.50;20.58;;;;;;;18.00;65.75;100565.19;4997163;28;20507;-87
2021/06/07 02:13:17;;;;;;;30.15;21.00;;;;;;;18.01;65.76;100571.38;5013248;28;20058;-88
2021/06/07 02:15:52;;;;;;;29.52;21.85;;;;;;;17.96;65.84;100561.91;4995791;28;20110;-87
2021/06/07 02:18:19;;;;;;;27.20;20.42;;;;;;;17.97;65.60;100562.75;4996079;28;20057;-88
2021/06/07 02:20:45;;;;;;;23.48;19.15;;;;;;;17.97;65.64;100562.75;4995744;28;20105;-88
2021/06/07 02:23:12;;;;;;;26.55;20.05;;;;;;;17.96;65.60;100571.72;4995730;28;20062;-88
2021/06/07 02:25:39;;;;;;;22.88;18.50;;;;;;;17.94;65.55;100568.34;5012838;28;20046;-87
2021/06/07 02:28:13;;;;;;;21.38;18.05;;;;;;;17.92;65.89;100562.25;4996467;28;20462;-87
2021/06/07 02:30:41;;;;;;;28.42;18.80;;;;;;;17.92;65.53;100559.59;4994541;28;20081;-87
2021/06/07 02:33:09;;;;;;;28.25;19.23;;;;;;;17.92;65.50;100570.25;5012822;28;20115;-87
2021/06/07 02:35:36;;;;;;;24.20;18.58;;;;;;;17.90;65.47;100569.53;4995356;28;20116;-88
2021/06/07 02:38:04;;;;;;;26.70;18.52;;;;;;;17.88;65.33;100572.31;5013034;28;20141;-88
2021/06/07 02:40:35;;;;;;;20.00;16.40;;;;;;;17.84;65.24;100566.34;4996139;28;20056;-87
2021/06/07 02:43:03;;;;;;;23.73;17.23;;;;;;;17.82;65.51;100570.94;4995321;28;20046;-87
2021/06/07 02:45:31;;;;;;;21.23;17.17;;;;;;;17.80;65.33;100567.53;5011235;28;20461;-87
2021/06/07 02:48:00;;;;;;;21.75;16.40;;;;;;;17.79;65.21;100571.16;5032559;28;20060;-86
2021/06/07 02:50:33;;;;;;;20.15;15.52;;;;;;;17.74;65.38;100570.66;5014966;28;20053;-87
2021/06/07 02:52:59;;;;;;;;;;;;;;;17.74;65.67;100572.47;5015364;28;20071;-86
2021/06/07 02:55:30;;;;;;;23.52;15.35;;;;;;;17.77;65.21;100567.78;5031782;28;19940;-87
2021/06/07 02:57:58;;;;;;;22.92;15.52;;;;;;;17.75;65.23;100569.69;5032458;28;20103;-88
2021/06/07 03:00:31;;;;;;;25.25;16.65;;;;;;;17.70;65.56;100558.53;5014811;28;20458;-87
2021/06/07 03:03:00;;;;;;;23.20;16.25;;;;;;;17.68;65.31;100571.13;5014460;28;20491;-87
2021/06/07 03:05:30;;;;;;;21.73;16.42;;;;;;;17.66;65.38;100571.25;5015041;28;20045;-87
2021/06/07 03:07:57;;;;;;;22.30;16.00;;;;;;;17.64;65.45;100565.16;5032228;28;20049;-87
2021/06/07 03:10:24;;;;;;;26.35;17.17;;;;;;;17.64;65.57;100567.00;5013755;28;20408;-87
2021/06/07 03:12:51;;;;;;;20.38;17.10;;;;;;;17.63;65.51;100565.28;5031952;28;20053;-88
2021/06/07 03:15:19;;;;;;;21.13;16.30;;;;;;;17.61;65.43;100572.53;5014323;28;20061;-88
2021/06/07 03:17:46;;;;;;;25.73;17.58;;;;;;;17.60;65.32;100576.16;5014404;28;20076;-88
2021/06/07 03:20:14;;;;;;;21.90;16.65;;;;;;;17.57;65.36;100575.41;5032236;28;20064;-88
2021/06/07 03:22:41;;;;;;;25.33;16.38;;;;;;;17.56;65.31;100576.38;5014623;28;20049;-87
2021/06/07 03:25:09;;;;;;;19.20;15.70;;;;;;;17.54;65.42;100578.28;5012465;28;20107;-87
2021/06/07 03:27:37;;;;;;;19.95;15.60;;;;;;;17.53;65.40;100570.44;5012427;28;20054;-88
2021/06/07 03:30:08;;;;;;;20.50;16.17;;;;;;;17.50;65.51;100576.00;4995242;28;20057;-87
2021/06/07 03:32:35;;;;;;;24.13;15.52;;;;;;;17.50;65.64;100579.50;5011928;28;20519;-87
2021/06/07 03:35:06;;;;;;;19.05;14.82;;;;;;;17.48;65.76;100578.75;4995009;28;20093;-87
2021/06/07 03:37:33;;;;;;;22.90;14.85;;;;;;;17.50;65.67;100582.19;5012332;28;20058;-87
2021/06/07 03:39:59;;;;;;;20.30;14.80;;;;;;;17.51;65.68;100583.00;5012304;28;20057;-89
2021/06/07 03:42:26;;;;;;;17.38;14.60;;;;;;;17.50;65.54;100573.31;5001883;28;20050;-88
2021/06/07 03:44:53;;;;;;;17.08;13.40;;;;;;;17.50;65.63;100571.53;5014131;28;20096;-88
2021/06/07 03:47:19;;;;;;;16.27;12.80;;;;;;;17.52;65.44;100582.03;5014512;28;20057;-87
2021/06/07 03:49:46;;;;;;;16.90;13.38;;;;;;;17.52;65.47;100577.56;5014237;28;20084;-87
2021/06/07 03:52:13;;;;;;;18.70;14.23;;;;;;;17.52;65.55;100568.72;5014522;28;20537;-88
2021/06/07 03:54:40;;;;;;;17.45;13.45;;;;;;;17.52;65.46;100569.59;5014317;28;20053;-88
2021/06/07 03:57:07;;;;;;;18.08;13.43;;;;;;;17.53;65.29;100575.78;5031894;28;20054;-87
2021/06/07 03:59:33;;;;;;;15.25;13.07;;;;;;;17.52;65.35;100576.72;5030185;28;20053;-87
2021/06/07 04:02:03;;;;;;;16.35;12.48;;;;;;;17.52;65.31;100574.91;5014416;28;20045;-88
2021/06/07 04:04:29;;;;;;;15.63;12.73;;;;;;;17.52;65.32;100574.03;5034931;28;20045;-87
2021/06/07 04:06:56;;;;;;;17.08;13.15;;;;;;;17.52;65.41;100582.91;5035797;28;20062;-88
2021/06/07 04:09:23;;;;;;;16.33;13.07;;;;;;;17.51;65.41;100583.88;5035660;28;20073;-87
2021/06/07 04:11:49;;;;;;;15.35;13.65;;;;;;;17.51;65.65;100580.34;5035544;28;20050;-87
2021/06/07 04:14:16;;;;;;;15.77;12.23;;;;;;;17.51;65.32;100583.00;5017569;28;20049;-88
2021/06/07 04:16:43;;;;;;;18.77;13.13;;;;;;;17.52;65.45;100582.03;5020512;28;20058;-87
2021/06/07 04:19:13;;;;;;;16.25;12.50;;;;;;;17.50;65.46;100584.84;5015734;28;20056;-87
2021/06/07 04:21:40;;;;;;;14.52;11.57;;;;;;;17.51;65.52;100583.88;4998493;28;20049;-88
2021/06/07 04:24:07;;;;;;;17.00;11.80;;;;;;;17.51;65.44;100581.19;4997933;28;20500;-88
2021/06/07 04:26:35;;;;;;;15.55;11.68;;;;;;;17.52;65.46;100585.56;4997689;28;20054;-89
2021/06/07 04:29:02;;;;;;;19.92;13.25;;;;;;;17.53;65.39;100587.25;5015609;28;20064;-88
2021/06/07 04:31:29;;;;;;;18.02;11.93;;;;;;;17.55;65.07;100596.00;5015644;28;20504;-88
2021/06/07 04:33:56;;;;;;;15.07;11.70;;;;;;;17.55;65.38;100582.69;5016071;28;20054;-88
2021/06/07 04:36:22;;;;;;;14.07;12.18;;;;;;;17.56;65.13;100581.72;5015429;28;20062;-88
2021/06/07 04:38:49;;;;;;;17.33;12.13;;;;;;;17.57;65.31;100587.91;5015186;28;20590;-89
2021/06/07 04:41:16;;;;;;;16.13;12.07;;;;;;;17.57;65.28;100586.06;4997662;28;20054;-87
2021/06/07 04:43:42;;;;;;;17.52;12.07;;;;;;;17.57;65.07;100587.91;5014820;28;20396;-87
2021/06/07 04:46:09;;;;;;;15.15;12.07;;;;;;;17.56;64.86;100587.03;5014874;28;20069;-88
2021/06/07 04:48:37;;;;;;;15.65;11.93;;;;;;;17.55;65.13;100603.13;4998721;28;20075;-88
2021/06/07 04:51:04;;;;;;;17.77;12.05;;;;;;;17.54;64.99;100583.63;5015006;28;20050;-87
2021/06/07 04:53:30;;;;;;;14.55;12.77;;;;;;;17.54;65.50;100583.63;5015173;28;20415;-87
2021/06/07 04:55:59;;;;;;;16.25;12.25;;;;;;;17.54;65.38;100585.44;5014467;28;20084;-87
2021/06/07 04:58:28;;;;;;;16.27;12.15;;;;;;;17.54;65.47;100590.78;4997273;28;20502;-89
2021/06/07 05:01:04;;;;;;;15.85;11.38;;;;;;;17.52;65.41;100585.56;4997275;28;20054;-89
2021/06/07 05:03:31;;;;;;;15.75;11.45;;;;;;;17.55;65.04;100587.13;4997417;28;20054;-89
2021/06/07 05:05:59;;;;;;;13.48;12.07;;;;;;;17.55;65.10;100584.47;5007773;28;20053;-88
2021/06/07 05:08:30;;;;;;;16.13;11.63;;;;;;;17.53;65.31;100584.59;5016555;28;20564;-88
2021/06/07 05:10:57;;;;;;;18.63;11.57;;;;;;;17.53;65.38;100581.09;5034470;28;20053;-88
2021/06/07 05:13:25;;;;;;;16.02;11.30;;;;;;;17.52;65.35;100579.38;5016778;28;20415;-88
2021/06/07 05:15:53;;;;;;;18.90;11.75;;;;;;;17.52;65.22;100582.03;5034498;28;20053;-89
2021/06/07 05:18:20;;;;;;;12.98;10.65;;;;;;;17.52;65.26;100584.69;5017850;28;20111;-90
2021/06/07 05:20:47;;;;;;;15.32;11.55;;;;;;;17.51;64.92;100578.53;5017640;28;20058;-89
2021/06/07 05:23:19;;;;;;;13.02;10.48;;;;;;;17.52;65.13;100588.22;5000360;28;20084;-90
2021/06/07 05:25:48;;;;;;;17.08;11.23;;;;;;;17.53;65.33;100586.41;4997189;28;20056;-91
2021/06/07 05:28:18;;;;;;;16.02;11.50;;;;;;;17.53;65.44;100589.91;4997683;28;20057;-89
2021/06/07 05:30:47;;;;;;;14.20;11.52;;;;;;;17.54;65.53;100588.13;4997653;28;20061;-89
2021/06/07 05:33:14;;;;;;;12.75;10.60;;;;;;;17.56;65.51;100587.03;4997319;28;20129;-90
2021/06/07 05:35:44;;;;;;;14.77;10.77;;;;;;;17.57;65.52;100588.72;5014387;28;20058;-91
2021/06/07 05:38:12;;;;;;;12.45;10.00;;;;;;;17.59;65.47;100585.97;4997128;28;20061;-89
2021/06/07 05:40:41;;;;;;;13.20;10.75;;;;;;;17.62;65.49;100595.53;5014474;28;20049;-88
2021/06/07 05:43:09;;;;;;;13.98;10.80;;;;;;;17.64;65.41;100598.94;4996877;28;20061;-91
2021/06/07 05:45:36;;;;;;;15.95;10.55;;;;;;;17.66;65.46;100597.00;4997404;28;20058;-90
2021/06/07 05:48:07;;;;;;;13.25;10.15;;;;;;;17.66;65.05;100592.53;4997105;28;20119;-89
2021/06/07 05:50:35;;;;;;;14.43;10.52;;;;;;;17.68;65.05;100606.56;4998068;28;20084;-89
2021/06/07 05:53:04;;;;;;;14.18;9.98;;;;;;;17.70;65.29;100601.13;4998233;28;20418;-89
2021/06/07 05:55:36;;;;;;;16.02;10.60;;;;;;;17.70;65.30;100596.69;5000551;28;20064;-91
2021/06/07 05:58:09;;;;;;;13.18;9.68;;;;;;;17.74;65.14;100601.75;4996438;28;20056;-90
2021/06/07 06:00:39;;;;;;;14.95;9.80;;;;;;;17.78;65.13;100603.22;4996530;28;20077;-89
2021/06/07 06:03:06;;;;;;;11.95;9.07;;;;;;;17.82;65.29;100602.03;4996558;28;20046;-90
2021/06/07 06:05:34;;;;;;;12.10;9.63;;;;;;;17.85;65.22;100601.81;4995917;28;20132;-90
2021/06/07 06:08:04;;;;;;;16.90;10.70;;;;;;;17.88;64.89;100600.72;5013652;28;20077;-91
2021/06/07 06:10:31;;;;;;;13.88;9.05;;;;;;;17.91;64.99;100604.00;4996190;28;20515;-89
2021/06/07 06:12:59;;;;;;;12.52;9.45;;;;;;;17.95;65.13;100600.16;4997515;28;20057;-89
2021/06/07 06:15:27;;;;;;;13.88;9.77;;;;;;;17.98;65.08;100597.28;4996498;28;20049;-90
2021/06/07 06:17:54;;;;;;;11.50;8.68;;;;;;;18.03;65.29;100596.94;4995898;28;20104;-91
2021/06/07 06:20:24;;;;;;;13.63;9.63;;;;;;;18.08;64.85;100596.59;4996835;28;20058;-90
2021/06/07 06:22:50;;;;;;;12.68;9.63;;;;;;;18.14;64.92;100600.63;4996147;28;20045;-89
2021/06/07 06:25:18;;;;;;;11.75;9.30;;;;;;;18.18;64.83;100602.94;4996144;28;20053;-91
2021/06/07 06:27:45;;;;;;;13.25;9.32;;;;;;;18.22;64.56;100596.44;4995696;28;20057;-90
2021/06/07 06:30:16;;;;;;;11.65;9.00;;;;;;;18.26;64.88;100601.50;4996068;28;20057;-90
2021/06/07 06:32:46;;;;;;;11.40;9.30;;;;;;;18.30;64.86;100598.50;4996153;28;20070;-90
2021/06/07 06:35:14;;;;;;;14.60;9.40;;;;;;;18.38;65.10;100597.06;4996057;28;20053;-89
2021/06/07 06:37:43;;;;;;;13.90;8.98;;;;;;;18.46;64.82;100594.63;5013732;28;20081;-91
2021/06/07 06:40:16;;;;;;;14.90;9.05;;;;;;;18.52;64.27;100598.66;4996064;28;20514;-90
2021/06/07 06:42:43;;;;;;;10.95;9.48;;;;;;;18.58;64.47;100601.69;4995201;28;20057;-90
2021/06/07 06:45:10;;;;;;;12.98;9.20;;;;;;;18.64;64.14;100604.88;5014111;28;20057;-89
2021/06/07 06:47:37;;;;;;;10.18;8.55;;;;;;;18.68;64.01;100606.31;4994775;28;20066;-89
2021/06/07 06:50:07;;;;;;;11.60;8.93;;;;;;;18.72;64.12;100602.44;5011545;28;20054;-89
2021/06/07 06:52:34;;;;;;;10.98;8.55;;;;;;;18.77;63.92;100600.28;4995180;28;20492;-90
2021/06/07 06:55:01;;;;;;;11.25;9.25;;;;;;;18.82;63.92;100603.44;4999955;28;20522;-89
2021/06/07 06:57:27;;;;;;;10.35;8.52;;;;;;;18.89;63.96;100607.28;5032993;28;20060;-89
2021/06/07 06:59:54;;;;;;;10.95;8.30;;;;;;;18.96;63.91;100604.16;5033300;28;20049;-89
2021/06/07 07:02:21;;;;;;;12.40;8.05;;;;;;;19.02;63.88;100607.19;5015813;28;20453;-89
2021/06/07 07:04:48;;;;;;;10.60;8.60;;;;;;;19.10;63.78;100601.25;5032938;28;20049;-89
2021/06/07 07:07:15;;;;;;;9.15;7.80;;;;;;;19.19;64.06;100609.50;5014985;28;20111;-92
2021/06/07 07:09:45;;;;;;;10.88;8.27;;;;;;;19.28;64.10;100611.44;5032042;28;20053;-91
2021/06/07 07:12:12;;;;;;;11.73;8.70;;;;;;;19.37;63.63;100613.34;5015034;28;20384;-90
2021/06/07 07:14:40;;;;;;;13.00;8.38;;;;;;;19.46;63.75;100619.78;5033099;28;20049;-88
2021/06/07 07:17:07;;;;;;;9.90;7.82;;;;;;;19.56;63.64;100614.53;5015530;28;20495;-88
2021/06/07 07:19:36;;;;;;;10.30;8.30;;;;;;;19.64;63.47;100612.09;5015577;28;20558;-90
2021/06/07 07:22:03;;;;;;;14.45;8.07;;;;;;;19.73;63.04;100612.31;5031659;28;20502;-90
2021/06/07 07:24:30;;;;;;;13.50;8.23;;;;;;;19.80;62.62;100610.81;5014934;28;20498;-88
2021/06/07 07:26:56;;;;;;;10.10;7.43;;;;;;;19.86;62.86;100613.00;4996837;28;20666;-89
2021/06/07 07:29:23;;;;;;;12.25;8.18;;;;;;;19.91;62.74;100613.47;4996291;28;20058;-88
2021/06/07 07:31:50;;;;;;;11.70;8.13;;;;;;;19.99;62.58;100606.63;4995945;28;20061;-88
2021/06/07 07:34:17;;;;;;;11.13;8.02;;;;;;;20.05;62.87;100616.84;4995882;28;20061;-89
2021/06/07 07:36:43;;;;;;;10.07;7.80;;;;;;;20.13;62.68;100616.19;4996402;28;20104;-89
2021/06/07 07:39:10;;;;;;;11.38;8.20;;;;;;;20.21;62.37;100619.06;4998962;28;20050;-88
2021/06/07 07:41:36;;;;;;;10.10;7.72;;;;;;;20.27;61.61;100613.22;5022512;28;20042;-89
2021/06/07 07:44:03;;;;;;;11.85;8.82;;;;;;;20.32;61.80;100610.13;5035989;28;20049;-88
2021/06/07 07:46:40;;;;;;;10.15;7.60;;;;;;;20.37;61.97;100613.25;5021134;28;20417;-88
2021/06/07 07:49:10;;;;;;;8.25;7.43;;;;;;;20.44;61.85;100613.59;5019830;28;20127;-88
2021/06/07 07:51:37;;;;;;;9.13;7.72;;;;;;;20.50;62.15;100613.06;5019394;28;20046;-91
2021/06/07 07:54:05;;;;;;;9.95;7.88;;;;;;;20.56;61.79;100617.06;5035815;28;20053;-90
2021/06/07 07:56:32;;;;;;;9.43;7.70;;;;;;;20.62;61.33;100621.84;5036046;28;20469;-91
2021/06/07 07:58:59;;;;;;;12.07;7.10;;;;;;;20.70;60.91;100621.19;5035782;28;20053;-87
2021/06/07 08:01:26;;;;;;;9.20;7.00;;;;;;;20.76;61.04;100623.34;5036984;28;20049;-88
2021/06/07 08:03:53;;;;;;;11.05;7.80;;;;;;;20.81;61.03;100617.59;5018925;28;20053;-88
2021/06/07 08:06:20;;;;;;;8.57;7.43;;;;;;;20.86;60.42;100620.69;5018242;28;20400;-89
2021/06/07 08:08:46;;;;;;;8.38;7.30;;;;;;;20.89;60.31;100623.16;5035658;28;20060;-89
2021/06/07 08:11:13;;;;;;;10.50;7.07;;;;;;;20.90;60.09;100619.50;5035456;28;20058;-89
2021/06/07 08:13:40;;;;;;;11.25;7.75;;;;;;;20.92;59.99;100617.53;5016198;28;20050;-89
2021/06/07 08:16:07;;;;;;;10.00;7.50;;;;;;;20.96;60.12;100615.44;5017565;28;20061;-89
2021/06/07 08:18:34;;;;;;;9.77;7.10;;;;;;;21.00;60.36;100610.69;5020160;28;20054;-90
2021/06/07 08:21:00;;;;;;;9.82;7.63;;;;;;;21.04;60.33;100612.09;4998455;28;20418;-91
2021/06/07 08:23:27;;;;;;;7.75;6.90;;;;;;;21.08;60.50;100616.19;4998156;28;20060;-89
2021/06/07 08:25:54;;;;;;;7.88;6.90;;;;;;;21.15;60.28;100620.00;5015427;28;20058;-90
2021/06/07 08:28:20;;;;;;;7.70;7.00;;;;;;;21.23;60.19;100627.34;5015728;28;20058;-90
2021/06/07 08:30:47;;;;;;;8.05;6.80;;;;;;;21.29;59.85;100620.63;5015469;28;20124;-91
2021/06/07 08:33:13;;;;;;;9.30;6.93;;;;;;;21.34;59.17;100623.72;5015381;28;20133;-91
2021/06/07 08:35:40;;;;;;;7.85;7.05;;;;;;;21.39;59.42;100613.47;4997977;28;20049;-91
2021/06/07 08:38:07;;;;;;;8.52;7.07;;;;;;;21.43;58.94;100630.97;4998286;28;20079;-89
2021/06/07 08:40:33;;;;;;;7.68;6.85;;;;;;;21.46;58.75;100629.84;4998765;28;20054;-89
2021/06/07 08:43:00;;;;;;;7.75;6.90;;;;;;;21.47;58.67;100624.34;4998435;28;20487;-90
2021/06/07 08:45:28;;;;;;;7.43;6.28;;;;;;;21.52;58.52;100637.31;4998193;28;20099;-90
2021/06/07 08:47:55;;;;;;;9.10;6.50;;;;;;;21.55;58.25;100623.66;4998690;28;20100;-89
2021/06/07 08:50:30;;;;;;;8.32;7.07;;;;;;;21.55;58.03;100625.47;4999463;28;20064;-90
2021/06/07 08:52:57;;;;;;;9.60;6.78;;;;;;;21.61;58.44;100622.25;4999269;28;20057;-89
2021/06/07 08:55:28;;;;;;;9.45;7.07;;;;;;;21.66;58.89;100627.19;4999632;28;20081;-89
2021/06/07 08:58:00;;;;;;;9.00;6.43;;;;;;;21.72;58.60;100627.50;4999339;28;20478;-89
2021/06/07 09:00:30;;;;;;;7.78;6.88;;;;;;;21.79;58.51;100624.28;4998810;28;20061;-88
2021/06/07 09:03:03;;;;;;;7.85;6.63;;;;;;;21.87;58.38;100629.78;4998885;28;20060;-88
2021/06/07 09:05:32;;;;;;;7.82;6.15;;;;;;;21.95;58.51;100621.91;5011290;28;20049;-90
2021/06/07 09:08:10;;;;;;;9.82;6.57;;;;;;;22.00;57.67;100619.63;5017936;28;20050;-90
2021/06/07 09:10:40;;;;;;;7.50;6.15;;;;;;;22.10;58.09;100621.47;5018122;28;20058;-89
2021/06/07 09:13:09;;;;;;;7.80;6.18;;;;;;;22.18;58.01;100615.38;5016946;28;20418;-90
2021/06/07 09:15:41;;;;;;;8.75;6.05;;;;;;;22.26;58.08;100623.56;5033860;28;20095;-89
2021/06/07 09:18:14;;;;;;;9.48;7.03;;;;;;;22.36;57.57;100620.88;5017884;28;20053;-89
2021/06/07 09:20:42;;;;;;;7.10;5.75;;;;;;;22.48;57.69;100625.09;5017611;28;20487;-92
2021/06/07 09:23:15;;;;;;;8.45;5.07;;;;;;;22.59;57.65;100617.88;5034352;28;20069;-93
2021/06/07 09:25:45;;;;;;;10.32;6.22;;;;;;;22.73;57.09;100627.31;5034122;28;20052;-92
2021/06/07 09:28:22;;;;;;;8.02;5.68;;;;;;;22.83;56.22;100627.28;5016627;28;20076;-91
2021/06/07 09:30:54;;;;;;;7.35;6.07;;;;;;;22.96;56.83;100629.63;5016743;28;20053;-91
2021/06/07 09:33:25;;;;;;;7.68;5.40;;;;;;;23.03;56.16;100628.06;5033828;28;20056;-91
2021/06/07 09:36:23;;;;;;;7.88;6.25;;;;;;;23.08;55.89;100631.13;5016334;28;20053;-91
2021/06/07 09:38:59;;;;;;;9.65;5.82;;;;;;;23.20;56.35;100634.47;5016661;28;20046;-90
2021/06/07 09:41:29;;;;;;;7.85;5.28;;;;;;;23.27;56.22;100635.56;5016582;28;20053;-90
2021/06/07 09:44:01;;;;;;;6.95;5.40;;;;;;;23.33;55.24;100633.28;5034377;28;20116;-91
2021/06/07 09:46:31;;;;;;;6.40;5.70;;;;;;;23.40;55.75;100632.53;5017425;28;20049;-90
2021/06/07 09:49:05;;;;;;;8.55;6.28;;;;;;;23.44;54.35;100641.16;5017254;28;20129;-91
2021/06/07 09:51:31;;;;;;;7.72;5.85;;;;;;;23.51;54.77;100641.41;5016803;28;20049;-90
2021/06/07 09:53:58;;;;;;;7.50;5.80;;;;;;;23.55;55.17;100638.25;5023761;28;20045;-92
2021/06/07 09:56:25;;;;;;;6.78;5.75;;;;;;;23.61;55.03;100636.81;5016233;28;20140;-91
2021/06/07 09:58:53;;;;;;;8.50;5.95;;;;;;;23.67;55.08;100636.19;5015818;28;20095;-91
2021/06/07 10:01:22;;;;;;;7.53;5.90;;;;;;;23.73;54.66;100634.75;5015326;28;20072;-92
2021/06/07 10:03:54;;;;;;;8.75;6.43;;;;;;;23.84;54.67;100632.84;5034020;28;20072;-89
2021/06/07 10:06:34;;;;;;;7.28;6.00;;;;;;;23.97;53.95;100636.00;5017178;28;20495;-89
2021/06/07 10:09:14;;;;;;;7.25;5.55;;;;;;;24.06;53.84;100639.56;5035457;28;20049;-89
2021/06/07 10:11:45;;;;;;;8.52;5.70;;;;;;;24.20;54.28;100628.31;5005148;28;20072;-89
2021/06/07 10:14:14;;;;;;;6.88;5.25;;;;;;;24.30;52.76;100635.44;4997218;28;20054;-89
2021/06/07 10:16:57;;;;;;;6.38;5.75;;;;;;;24.32;52.66;100628.91;4997108;28;20069;-89
2021/06/07 10:22:10;;;;;;;5.78;5.22;;;;;;;24.45;52.30;100635.72;5013851;28;20054;-90
2021/06/07 10:24:36;;;;;;;6.22;5.38;;;;;;;24.42;51.98;100633.34;5013263;28;20061;-90
2021/06/07 10:27:05;;;;;;;8.00;5.68;;;;;;;24.36;52.10;100629.44;5000997;28;20516;-89
2021/06/07 10:29:43;;;;;;;6.90;5.68;;;;;;;24.29;51.49;100633.75;5016805;28;20410;-89
2021/06/07 10:32:24;;;;;;;6.85;5.78;;;;;;;24.24;51.67;100631.53;5016625;28;20124;-89
2021/06/07 10:34:53;;;;;;;6.75;5.55;;;;;;;24.24;51.74;100639.59;5016356;28;20059;-90
2021/06/07 10:37:21;;;;;;;6.90;5.22;;;;;;;24.23;51.68;100634.38;5015212;28;20422;-91
2021/06/07 10:39:48;;;;;;;6.13;5.53;;;;;;;24.20;52.19;100636.38;5016466;28;20064;-89
2021/06/07 10:42:29;;;;;;;6.68;5.82;;;;;;;24.20;51.28;100638.22;5018227;28;20053;-89
2021/06/07 10:45:01;;;;;;;6.93;5.55;;;;;;;24.16;51.03;100631.47;4996448;28;20057;-89
2021/06/07 10:47:40;;;;;;;6.65;5.22;;;;;;;24.13;51.20;100635.31;4997302;28;20061;-90
2021/06/07 10:50:09;;;;;;;7.88;5.07;;;;;;;24.12;51.66;100632.78;4996440;28;20058;-91
2021/06/07 10:52:43;;;;;;;6.25;4.78;;;;;;;24.05;51.31;100630.69;4996483;28;20069;-90
2021/06/07 10:55:12;;;;;;;6.10;5.05;;;;;;;24.03;51.13;100631.84;5013082;28;20046;-92
2021/06/07 10:57:57;;;;;;;5.90;5.35;;;;;;;23.95;51.47;100633.44;4995405;28;20061;-91
2021/06/07 11:00:42;;;;;;;5.97;5.15;;;;;;;23.92;52.09;100632.91;4996018;28;20049;-91
2021/06/07 11:03:32;;;;;;;6.65;5.43;;;;;;;23.91;52.26;100631.22;4996384;28;20062;-90
2021/06/07 11:06:02;;;;;;;7.32;5.70;;;;;;;23.94;51.32;100631.75;4996560;28;20058;-91
2021/06/07 11:08:32;;;;;;;5.88;5.28;;;;;;;23.93;51.74;100631.91;5013557;28;20061;-89
2021/06/07 11:11:02;;;;;;;8.25;5.10;;;;;;;23.92;52.41;100630.22;4995882;28;20124;-89
2021/06/07 11:13:44;;;;;;;7.85;5.38;;;;;;;23.89;51.99;100634.03;4996064;28;20491;-89
2021/06/07 11:16:26;;;;;;;6.93;5.85;;;;;;;23.87;51.98;100633.38;4996285;28;20053;-89
2021/06/07 11:18:57;;;;;;;7.10;5.57;;;;;;;23.93;51.88;100631.91;4996532;28;20058;-88
2021/06/07 11:21:36;;;;;;;8.60;5.53;;;;;;;23.97;52.17;100629.75;4996273;28;20132;-89
2021/06/07 11:24:25;;;;;;;7.18;5.68;;;;;;;24.00;52.68;100632.13;4996421;28;20053;-91
2021/06/07 11:26:58;;;;;;;5.68;4.93;;;;;;;24.12;51.91;100627.38;4996453;28;20054;-89
2021/06/07 11:29:25;;;;;;;6.63;5.18;;;;;;;24.18;52.14;100621.41;4995485;28;20115;-90
2021/06/07 11:32:10;;;;;;;9.15;6.03;;;;;;;24.23;52.52;100613.72;5012129;28;20058;-92